Terminal Aerodrome Forecast
Issued by NWS Jacksonville, FL

Home | Current Version | Previous Version | Text Only | Print | Product List | Glossary On
Versions: 1 2 3 4 5 6 7 8 9 10 11 12 13 14 15 16 17 18
000
FTUS42 KJAX 260520
TAFJAX
TAF
KJAX 260520Z 2606/2706 11005KT P6SM SCT025
      TEMPO 2609/2613 BKN025
     FM261300 13008KT P6SM BKN025
     FM261600 13012KT P6SM BKN035=

USA.gov is the U.S. government's official web portal to all federal, state and local government web resources and services.